Latest Weather Observations for Mount Crawford

IDS60901

Issued at 4:41 am CDT Monday 26 January 2015 (issued every 10 minutes, with the page automatically refreshed every 10 minutes)

About weather observations | Map of Adelaide area stations | Latest observations for Adelaide area | Other Formats
Station Details ID: 023878 Name: MT CRAWFORD AWS Lat: -34.73 Lon: 138.93 Height: 525.0 m
Data from the previous 72 hours. | See also: Recent months at Mount Crawford
Date/Time
CDT
Tmp

°C
App
Tmp
°C
Dew
Point
°C
Rel
Hum
%
Delta-T

°C
Wind Press
QNH
hPa
Press
MSL
hPa
Rain
since
9 am
mm
Dir
 
Spd
km/h
Gust
km/h
Spd
kts
Gust
kts
26/04:30am 10.5 6.4 7.7 83 1.4 SSE 19 24 10 13 1015.6 1013.3 0.0
26/04:00am 10.7 7.2 7.4 80 1.6 S 15 19 8 10 1015.7 1013.4 0.0
26/03:30am 10.7 7.3 7.8 82 1.4 S 15 22 8 12 1015.6 1013.3 0.0
26/03:00am 10.7 7.2 7.2 79 1.7 S 15 20 8 11 1015.5 1013.2 0.0
26/02:30am 10.6 7.4 6.9 78 1.8 S 13 20 7 11 1015.6 1013.3 0.0
26/02:00am 10.5 6.2 6.8 78 1.8 SSW 19 24 10 13 1015.7 1013.4 0.0
26/01:30am 10.2 6.5 6.5 78 1.8 S 15 19 8 10 1015.8 1013.5 0.0
26/01:00am 10.1 6.8 6.4 78 1.8 SSE 13 19 7 10 1016.0 1013.7 0.0
26/12:30am 10.5 6.9 6.6 77 1.9 S 15 19 8 10 1016.2 1013.9 0.0
26/12:00am 10.3 6.5 5.9 74 2.1 S 15 17 8 9 1016.3 1014.0 0.0
 
Date/Time
CDT
Tmp

°C
App
Tmp
°C
Dew
Point
°C
Rel
Hum
%
Delta-T

°C
Wind Press
QNH
hPa
Press
MSL
hPa
Rain
since
9 am
mm
Dir
 
Spd
km/h
Gust
km/h
Spd
kts
Gust
kts
25/11:30pm 10.3 6.9 5.9 74 2.1 S 13 19 7 10 1016.3 1014.0 0.0
25/11:00pm 10.6 6.5 6.0 73 2.2 S 17 20 9 11 1016.2 1013.9 0.0
25/10:30pm 11.1 5.6 6.0 71 2.4 SSW 24 32 13 17 1016.1 1013.8 0.0
25/10:00pm 11.2 6.6 5.5 68 2.7 S 19 24 10 13 1015.8 1013.5 0.0
25/09:30pm 11.5 6.7 5.4 66 2.9 S 20 32 11 17 1015.5 1013.2 0.0
25/09:00pm 12.3 6.5 4.3 58 3.7 SSW 24 33 13 18 1014.9 1012.7 0.0
25/08:30pm 13.4 9.6 5.8 60 3.7 SSE 15 22 8 12 1014.7 1012.5 0.0
25/08:00pm 13.9 9.5 6.5 61 3.7 SSE 19 28 10 15 1014.5 1012.2 0.0
25/07:30pm 15.2 9.9 6.7 57 4.3 S 24 33 13 18 1014.0 1011.7 0.0
25/07:00pm 17.4 13.3 6.0 47 5.7 WSW 17 30 9 16 1013.8 1011.5 0.0
25/06:30pm 17.6 13.0 5.5 45 6.0 WSW 19 33 10 18 1013.4 1011.1 0.0
25/06:00pm 18.0 13.6 4.9 42 6.5 SW 17 26 9 14 1013.4 1011.1 0.0
25/05:30pm 19.1 14.4 5.2 40 7.0 WSW 19 30 10 16 1013.3 1011.0 0.0
25/05:00pm 18.7 13.4 4.8 40 6.9 WSW 22 39 12 21 1013.2 1010.9 0.0
25/04:30pm 19.5 14.6 5.2 39 7.2 WSW 20 33 11 18 1013.3 1011.0 0.0
25/04:00pm 18.3 13.5 5.5 43 6.4 WSW 20 35 11 19 1013.4 1011.1 0.0
25/03:30pm 17.9 13.1 5.5 44 6.2 WSW 20 37 11 20 1013.6 1011.3 0.0
25/03:00pm 18.0 13.4 5.6 44 6.2 WSW 19 35 10 19 1013.7 1011.4 0.0
25/02:30pm 17.8 12.4 4.7 42 6.4 SW 22 37 12 20 1013.8 1011.5 0.0
25/02:00pm 17.6 11.9 4.9 43 6.2 WSW 24 43 13 23 1013.7 1011.4 0.0
25/01:30pm 17.6 12.8 5.5 45 6.0 WSW 20 32 11 17 1013.8 1011.5 0.0
25/01:00pm 16.8 12.0 5.7 48 5.5 SW 20 37 11 20 1013.7 1011.4 0.0
25/12:30pm 16.0 11.2 5.6 50 5.1 WSW 20 35 11 19 1013.8 1011.5 0.0
25/12:00pm 15.5 10.0 6.0 53 4.7 WSW 24 39 13 21 1013.8 1011.5 0.0
25/11:30am 15.0 10.1 6.8 58 4.1 WSW 22 35 12 19 1013.8 1011.5 0.0
25/11:00am 14.8 9.9 6.9 59 4.0 WSW 22 33 12 18 1013.6 1011.3 0.0
25/10:30am 14.3 9.7 6.4 59 3.9 WSW 20 37 11 20 1013.3 1011.0 0.0
25/10:00am 14.1 9.7 6.5 60 3.8 WSW 19 32 10 17 1013.2 1010.9 0.0
25/09:30am 13.5 7.6 5.9 60 3.7 WSW 26 41 14 22 1012.7 1010.4 0.0
25/09:00am 13.3 8.4 7.1 66 3.1 WSW 22 39 12 21 1012.6 1010.3 0.0
25/08:30am 12.0 7.4 6.5 69 2.7 WSW 20 32 11 17 1012.3 1010.0 0.0
25/08:00am 11.4 6.9 6.3 71 2.5 WSW 19 26 10 14 1012.1 1009.8 0.0
25/07:30am 10.4 7.4 6.2 75 2.0 SW 11 19 6 10 1011.9 1009.6 0.0
25/07:00am 9.9 6.8 7.2 83 1.3 SW 13 22 7 12 1011.5 1009.2 0.0
25/06:30am 9.7 6.7 7.6 87 1.0 SW 13 19 7 10 1010.9 1008.6 0.0
25/06:00am 10.0 7.0 7.9 87 1.0 SW 13 20 7 11 1010.5 1008.2 0.0
25/05:30am 10.5 7.5 7.7 83 1.4 SW 13 20 7 11 1010.3 1008.0 0.0
25/05:00am 10.9 7.6 8.0 82 1.5 SW 15 22 8 12 1010.0 1007.7 0.0
25/04:30am 11.3 7.7 8.5 83 1.4 WSW 17 26 9 14 1009.9 1007.6 0.0
25/04:00am 11.2 7.7 8.8 85 1.2 SW 17 22 9 12 1009.6 1007.2 0.0
25/03:30am 11.5 7.9 8.5 82 1.5 WSW 17 24 9 13 1009.5 1007.1 0.0
25/03:00am 12.2 6.6 8.9 80 1.7 WSW 28 39 15 21 1009.6 1007.2 0.0
25/02:56am 12.3 6.8 9.0 80 1.7 WSW 28 46 15 25 1009.7 1007.4 0.0
25/02:30am 12.7 8.8 9.5 81 1.7 WSW 20 33 11 18 1009.8 1007.5 0.0
25/02:00am 12.6 9.1 10.3 86 1.2 WSW 19 32 10 17 1009.8 1007.5 0.0
25/01:30am 12.8 8.8 10.3 85 1.3 WSW 22 33 12 18 1009.8 1007.5 0.0
25/01:00am 13.1 8.2 10.1 82 1.6 WSW 26 43 14 23 1009.7 1007.4 0.0
25/12:39am 13.8 9.0 11.8 88 1.1 WSW 28 50 15 27 1009.4 1007.0 0.0
25/12:30am 13.9 10.3 11.8 87 1.2 WSW 22 44 12 24 1009.5 1007.1 0.0
25/12:00am 13.9 10.1 12.5 91 0.8 WSW 24 37 13 20 1009.6 1007.2 0.0
 
Date/Time
CDT
Tmp

°C
App
Tmp
°C
Dew
Point
°C
Rel
Hum
%
Delta-T

°C
Wind Press
QNH
hPa
Press
MSL
hPa
Rain
since
9 am
mm
Dir
 
Spd
km/h
Gust
km/h
Spd
kts
Gust
kts
24/11:51pm 13.8 9.2 12.2 90 0.9 WSW 28 46 15 25 1009.6 1007.2 0.0
24/11:30pm 14.1 9.5 12.3 89 1.0 WSW 28 41 15 22 1009.6 1007.2 0.0
24/11:11pm 14.2 9.8 12.8 91 0.8 WSW 28 46 15 25 1009.3 1006.9 0.0
24/11:00pm 14.1 10.9 13.0 93 0.6 WSW 22 39 12 21 1009.5 1007.1 0.0
24/10:30pm 14.1 10.3 13.5 96 0.3 WSW 26 44 14 24 1009.4 1007.0 0.0
24/10:04pm 14.9 10.7 13.4 91 0.9 WSW 28 54 15 29 1008.8 1006.5 0.0
24/10:00pm 15.5 12.0 13.5 88 1.1 WSW 24 39 13 21 1008.9 1006.6 0.0
24/09:39pm 15.4 11.3 13.8 90 0.9 WSW 28 46 15 25 1008.5 1006.2 0.0
24/09:30pm 15.8 12.3 13.3 85 1.4 W 24 44 13 24 1008.4 1006.1 0.0
24/09:00pm 16.3 12.7 13.0 81 1.9 W 24 32 13 17 1008.3 1006.0 0.0
24/08:30pm 16.5 12.3 12.3 76 2.4 W 26 43 14 23 1008.1 1005.8 0.0
24/08:00pm 17.3 13.1 11.1 67 3.4 W 24 44 13 24 1007.9 1005.5 0.0
24/07:30pm 18.3 13.0 11.1 63 4.0 W 30 44 16 24 1007.7 1005.3 0.0
24/07:00pm 18.6 12.8 10.9 61 4.3 W 32 48 17 26 1007.6 1005.2 0.0
24/06:30pm 19.2 14.1 10.5 57 4.8 W 28 50 15 27 1007.4 1005.0 0.0
24/06:21pm 19.3 13.8 10.6 57 4.8 W 30 50 16 27 1007.2 1004.8 0.0
24/06:00pm 19.0 13.8 10.3 57 4.8 WSW 28 43 15 23 1007.5 1005.1 0.0
24/05:45pm 18.9 13.6 9.9 56 4.9 W 28 46 15 25 1007.4 1005.0 0.0
24/05:30pm 19.9 15.5 10.3 54 5.3 WSW 24 41 13 22 1007.5 1005.1 0.0
24/05:00pm 20.4 15.0 10.8 54 5.4 W 30 44 16 24 1007.4 1005.0 0.0
24/04:32pm 21.1 15.6 10.6 51 5.9 W 30 52 16 28 1007.2 1004.8 0.0
24/04:30pm 21.0 15.5 10.5 51 5.9 W 30 43 16 23 1007.5 1005.1 0.0
24/04:01pm 20.5 15.2 10.0 51 5.8 W 28 48 15 26 1007.2 1004.8 0.0
24/04:00pm 21.0 15.7 9.9 49 6.1 W 28 43 15 23 1007.3 1004.9 0.0
24/03:43pm 20.6 14.9 9.8 50 5.9 W 30 48 16 26 1007.4 1005.0 0.0
24/03:30pm 20.4 13.7 9.6 50 5.9 W 35 48 19 26 1007.4 1005.0 0.0
24/03:00pm 21.0 15.2 9.6 48 6.3 WSW 30 46 16 25 1007.4 1005.0 0.0
24/02:39pm 20.0 13.4 8.7 48 6.1 W 33 52 18 28 1007.4 1005.0 0.0
24/02:30pm 20.6 14.2 9.2 48 6.2 W 33 46 18 25 1007.5 1005.1 0.0
24/02:00pm 20.3 14.4 9.2 49 6.0 W 30 41 16 22 1007.8 1005.4 0.0
24/01:45pm 20.4 14.9 9.0 48 6.2 W 28 46 15 25 1007.9 1005.5 0.0
24/01:30pm 19.6 14.0 8.9 50 5.8 W 28 37 15 20 1007.9 1005.5 0.0
24/01:00pm 19.3 14.4 9.8 54 5.2 W 26 39 14 21 1008.1 1005.8 0.0
24/12:30pm 18.7 13.5 10.3 58 4.6 WSW 28 43 15 23 1008.3 1006.0 0.0
24/12:00pm 18.6 13.4 10.2 58 4.6 W 28 37 15 20 1008.3 1006.0 0.0
24/11:30am 18.7 14.1 11.0 61 4.3 W 26 37 14 20 1008.4 1006.1 0.0
24/11:00am 17.3 12.2 10.7 65 3.6 W 28 41 15 22 1008.6 1006.3 0.0
24/10:30am 16.6 11.2 10.9 69 3.1 W 30 43 16 23 1008.8 1006.5 0.0
24/10:00am 15.2 10.5 10.8 75 2.4 W 26 39 14 21 1008.7 1006.4 0.0
24/09:30am 15.1 10.4 11.9 81 1.8 W 28 41 15 22 1008.6 1006.3 0.0
24/09:00am 13.7 10.3 12.4 92 0.7 W 22 32 12 17 1008.7 1006.4 0.0
24/08:30am 13.5 11.1 12.6 94 0.5 WNW 17 26 9 14 1008.6 1006.3 0.0
24/08:00am 12.9 10.2 11.8 93 0.6 NW 17 20 9 11 1008.4 1006.1 0.0
24/07:30am 12.7 10.4 11.8 94 0.5 NW 15 22 8 12 1008.4 1006.1 0.0
24/07:00am 12.3 10.2 11.2 93 0.6 NW 13 17 7 9 1008.2 1005.9 0.0
24/06:30am 12.8 10.6 10.9 88 1.0 NW 13 17 7 9 1008.1 1005.8 0.0
24/06:00am 12.8 11.0 10.9 88 1.0 W 11 13 6 7 1008.2 1005.9 0.0
24/05:30am 12.0 10.9 10.7 92 0.7 WNW 7 17 4 9 1008.0 1005.7 0.0
24/05:00am 11.6 9.8 10.8 95 0.4 W 11 13 6 7 1008.3 1006.0 0.0
24/04:30am 11.9 10.8 10.6 92 0.7 W 7 11 4 6 1008.4 1006.1 0.0
24/04:00am 11.9 12.3 11.1 95 0.4 CALM 0 0 0 0 1008.4 1006.1 0.0
24/03:30am 12.0 11.3 11.4 96 0.3 SE 6 7 3 4 1008.4 1006.1 0.0
24/03:00am 12.0 10.8 11.5 97 0.3 SE 9 11 5 6 1008.5 1006.2 0.0
24/02:30am 11.9 10.2 11.3 96 0.3 SE 11 13 6 7 1008.7 1006.4 0.0
24/02:00am 12.0 10.4 11.4 96 0.3 SE 11 15 6 8 1008.9 1006.6 0.0
24/01:30am 11.9 9.9 11.4 97 0.3 SE 13 17 7 9 1009.1 1006.7 0.0
24/01:00am 12.1 9.7 11.3 95 0.4 SE 15 17 8 9 1009.5 1007.1 0.0
24/12:30am 12.5 9.7 11.2 92 0.7 SSE 17 20 9 11 1009.7 1007.4 0.0
24/12:00am 12.6 9.8 11.5 93 0.6 SSE 17 22 9 12 1009.8 1007.5 0.0
 
Date/Time
CDT
Tmp

°C
App
Tmp
°C
Dew
Point
°C
Rel
Hum
%
Delta-T

°C
Wind Press
QNH
hPa
Press
MSL
hPa
Rain
since
9 am
mm
Dir
 
Spd
km/h
Gust
km/h
Spd
kts
Gust
kts
23/11:30pm 12.7 9.8 11.1 90 0.9 SE 17 20 9 11 1010.0 1007.7 0.0
23/11:00pm 13.1 10.1 10.8 86 1.2 SSE 17 22 9 12 1010.0 1007.7 0.0
23/10:30pm 13.4 9.8 10.4 82 1.6 SSE 20 28 11 15 1009.7 1007.4 0.0
23/10:00pm 13.9 10.4 10.3 79 1.9 SSE 19 26 10 14 1009.7 1007.4 0.0
23/09:30pm 14.4 11.3 10.4 77 2.2 SE 17 24 9 13 1009.8 1007.5 0.0
23/09:00pm 15.1 11.9 10.1 72 2.7 SE 17 22 9 12 1009.6 1007.2 0.0
23/08:30pm 15.9 12.7 9.8 67 3.3 SE 17 26 9 14 1009.4 1007.0 0.0
23/08:00pm 17.1 13.9 10.0 63 3.8 SE 17 24 9 13 1009.2 1006.8 0.0
23/07:30pm 18.3 14.8 10.2 59 4.4 SE 19 26 10 14 1008.8 1006.5 0.0
23/07:00pm 19.6 15.9 10.0 54 5.3 SSE 20 28 11 15 1008.6 1006.3 0.0
23/06:30pm 21.0 17.5 10.2 50 6.0 S 19 24 10 13 1008.4 1006.1 0.0
23/06:00pm 22.5 20.3 12.2 52 6.0 W 15 24 8 13 1008.5 1006.2 0.0
23/05:30pm 23.8 21.1 12.8 50 6.5 W 19 24 10 13 1008.5 1006.2 0.0
23/05:00pm 23.7 21.1 12.0 48 6.8 W 17 24 9 13 1008.7 1006.4 0.0
23/04:30pm 24.4 22.1 13.0 49 6.8 W 17 28 9 15 1008.7 1006.4 0.0
23/04:00pm 23.8 20.8 12.1 48 6.8 W 19 35 10 19 1008.7 1006.4 0.0
23/03:30pm 23.5 20.6 12.8 51 6.3 W 20 28 11 15 1009.1 1006.7 0.0
23/03:00pm 23.7 21.0 13.6 53 6.0 W 20 32 11 17 1009.1 1006.7 0.0
23/02:30pm 23.8 21.1 13.6 52 6.1 W 20 30 11 16 1009.2 1006.8 0.0
23/02:00pm 23.1 20.6 13.6 55 5.7 WNW 19 32 10 17 1009.3 1006.9 0.0
23/01:30pm 23.2 20.3 12.8 52 6.1 W 20 30 11 16 1009.6 1007.2 0.0
23/01:00pm 23.2 20.4 12.5 51 6.3 W 19 28 10 15 1009.6 1007.2 0.0
23/12:30pm 23.0 21.3 12.6 52 6.1 WSW 13 28 7 15 1009.8 1007.5 0.0
23/12:00pm 22.0 19.9 12.3 54 5.6 SW 15 24 8 13 1010.0 1007.7 0.0
23/11:30am 21.2 20.3 12.6 58 5.0 NW 9 15 5 8 1010.1 1007.8 0.0
23/11:00am 20.6 18.7 11.8 57 5.0 SW 13 20 7 11 1010.5 1008.2 0.0
23/10:30am 20.8 18.1 10.3 51 5.8 SSW 15 24 8 13 1010.4 1008.1 0.0
23/10:00am 20.2 16.9 4.3 35 7.9 SW 11 20 6 11 1010.4 1008.1 0.0
23/09:30am 19.2 16.1 5.6 41 6.9 WSW 11 17 6 9 1010.4 1008.1 0.0
23/09:00am 18.5 15.5 3.9 38 7.1 SSW 9 15 5 8 1010.1 1007.8 0.0
23/08:30am 18.8 15.6 3.0 35 7.6 E 9 11 5 6 1009.5 1007.1 0.0
23/08:00am 17.2 13.2 3.1 39 6.7 SSE 13 17 7 9 1009.7 1007.4 0.0
23/07:30am 15.8 12.3 5.4 50 5.1 S 13 19 7 10 1009.5 1007.1 0.0
23/07:00am 15.1 15.1 15.1 100 0.0 SSW 9 13 5 7 1009.1 1006.7 0.0
23/06:30am 15.4 15.1 15.4 100 0.0 SW 11 17 6 9 1009.1 1006.7 0.0
23/06:00am 15.7 15.1 15.7 100 0.0 W 13 17 7 9 1008.7 1006.4 0.0
23/05:30am 15.9 15.7 15.6 98 0.2 W 11 15 6 8 1008.1 1005.8 0.0
23/05:00am 16.7 15.9 12.8 78 2.2 W 9 9 5 5 1007.8 1005.4 0.0

Latest Capital City Observations: Canberra | Sydney | Melbourne | Brisbane | Adelaide | Perth | Hobart | Darwin

Other Formats:

Comma delimited format used in spreadsheet applications
http://www.bom.gov.au/fwo/IDS60901/IDS60901.94678.axf

JavaScript Object Notation format (JSON) in row-major order
http://www.bom.gov.au/fwo/IDS60901/IDS60901.94678.json